Time;durP1;ratioP1;P1;durP2;ratioP2;P2;SDS_P1;SDS_P2;PMS_P1;PMS_P2;Temp;Humidity;BMP_temperature;BMP_pressure;BME280_temperature;BME280_humidity;BME280_pressure;Samples;Min_cycle;Max_cycle;Signal;HPM_P1;HPM_P2
2021/04/10 00:00:24;;;;;;;;;;;7.10;90.30;;;;;;5018802;28;88126;-71
2021/04/10 00:02:50;;;;;;;;;;;7.00;90.30;;;;;;5018727;28;87732;-71
2021/04/10 00:05:17;;;;;;;;;;;7.10;90.40;;;;;;5018415;28;88445;-71
2021/04/10 00:07:42;;;;;;;;;;;7.10;90.40;;;;;;5017593;28;87311;-71
2021/04/10 00:10:08;;;;;;;;;;;7.00;90.30;;;;;;5021618;28;87154;-71
2021/04/10 00:12:34;;;;;;;;;;;7.00;90.30;;;;;;5021210;28;89612;-71
2021/04/10 00:14:59;;;;;;;;;;;7.00;90.30;;;;;;5019140;28;87982;-71
2021/04/10 00:17:25;;;;;;;;;;;7.00;90.20;;;;;;5021432;28;87720;-71
2021/04/10 00:19:50;;;;;;;;;;;7.00;90.50;;;;;;5018750;28;87206;-71
2021/04/10 00:22:16;;;;;;;;;;;6.90;90.40;;;;;;5019553;28;87212;-71
2021/04/10 00:24:41;;;;;;;;;;;6.90;90.30;;;;;;5018435;28;89524;-71
2021/04/10 00:27:07;;;;;;;;;;;7.00;90.30;;;;;;5020597;28;87183;-71
2021/04/10 00:29:32;;;;;;;;;;;6.90;90.30;;;;;;5021849;28;87262;-71
2021/04/10 00:31:58;;;;;;;;;;;6.90;90.30;;;;;;5021085;28;87506;-71
2021/04/10 00:34:23;;;;;;;;;;;6.90;90.20;;;;;;5020950;28;87298;-71
2021/04/10 00:36:49;;;;;;;;;;;6.90;90.20;;;;;;5024123;28;87341;-71
2021/04/10 00:39:14;;;;;;;;;;;6.90;90.20;;;;;;5021058;28;88634;-71
2021/04/10 00:41:40;;;;;;;;;;;6.90;90.30;;;;;;5018144;28;87944;-71
2021/04/10 00:44:05;;;;;;;;;;;6.80;90.30;;;;;;5018745;28;88783;-71
2021/04/10 00:46:31;;;;;;;;;;;6.80;90.10;;;;;;5017297;28;87678;-71
2021/04/10 00:48:57;;;;;;;;;;;6.80;90.20;;;;;;5017366;28;88060;-71
2021/04/10 00:51:23;;;;;;;;;;;6.80;90.20;;;;;;5018805;28;87705;-71
2021/04/10 00:53:49;;;;;;;;;;;6.80;90.20;;;;;;5018476;28;87133;-71
2021/04/10 00:56:15;;;;;;;;;;;6.80;90.20;;;;;;5017289;28;87171;-71
2021/04/10 00:58:40;;;;;;;;;;;6.80;90.20;;;;;;5020499;28;88276;-71
2021/04/10 01:01:06;;;;;;;;;;;6.80;90.20;;;;;;5019132;28;87585;-71
2021/04/10 01:03:32;;;;;;;;;;;6.80;90.30;;;;;;5019255;28;88226;-71
2021/04/10 01:05:58;;;;;;;;;;;6.70;90.20;;;;;;5018994;28;86396;-71
2021/04/10 01:08:23;;;;;;;;;;;6.70;90.20;;;;;;5017666;28;87293;-71
2021/04/10 01:10:50;;;;;;;;;;;6.70;90.20;;;;;;5017672;28;88169;-71
2021/04/10 01:13:28;;;;;;;;;;;6.70;90.20;;;;;;5016804;28;88123;-71
2021/04/10 01:16:12;;;;;;;;;;;6.70;90.20;;;;;;5019843;28;88620;-71
2021/04/10 01:18:46;;;;;;;;;;;6.70;90.20;;;;;;5018208;28;88099;-71
2021/04/10 01:21:12;;;;;;;;;;;6.70;90.00;;;;;;5024372;28;87145;-71
2021/04/10 01:23:37;;;;;;;;;;;6.70;90.10;;;;;;5020997;28;88289;-71
2021/04/10 01:26:06;;;;;;;;;;;6.60;90.00;;;;;;5021199;28;87130;-71
2021/04/10 01:28:47;;;;;;;;;;;6.60;90.10;;;;;;5018057;28;87334;-71
2021/04/10 01:31:15;;;;;;;;;;;6.60;90.00;;;;;;5018755;28;87671;-71
2021/04/10 01:33:42;;;;;;;;;;;6.60;90.10;;;;;;5017529;28;88004;-71
2021/04/10 01:36:10;;;;;;;;;;;6.60;90.20;;;;;;5019638;28;87289;-71
2021/04/10 01:38:36;;;;;;;;;;;6.50;90.10;;;;;;5015821;28;89138;-71
2021/04/10 01:41:03;;;;;;;;;;;6.60;90.00;;;;;;5017336;28;87166;-71
2021/04/10 01:43:30;;;;;;;;;;;6.50;90.10;;;;;;5019611;28;87358;-71
2021/04/10 01:45:56;;;;;;;;;;;6.50;90.10;;;;;;5016212;28;87625;-71
2021/04/10 01:48:22;;;;;;;;;;;6.50;90.10;;;;;;5021628;28;87208;-72
2021/04/10 01:50:49;;;;;;;;;;;6.50;90.00;;;;;;5020574;28;88197;-71
2021/04/10 01:53:14;;;;;;;;;;;6.50;90.10;;;;;;5020949;28;87164;-71
2021/04/10 01:55:41;;;;;;;;;;;6.50;90.10;;;;;;5019701;28;87421;-72
2021/04/10 01:58:06;;;;;;;;;;;6.50;90.00;;;;;;5020260;28;88527;-72
2021/04/10 02:00:34;;;;;;;;;;;6.40;90.00;;;;;;5020366;28;87705;-71
2021/04/10 02:03:00;;;;;;;;;;;6.40;90.10;;;;;;5018984;28;88240;-71
2021/04/10 02:05:26;;;;;;;;;;;6.40;90.10;;;;;;5022044;28;87797;-71
2021/04/10 02:07:52;;;;;;;;;;;6.40;90.00;;;;;;5019283;28;87142;-71
2021/04/10 02:10:20;;;;;;;;;;;6.40;90.00;;;;;;5019365;28;87654;-71
2021/04/10 02:12:48;;;;;;;;;;;6.40;90.00;;;;;;5018165;28;87176;-71
2021/04/10 02:15:13;;;;;;;;;;;6.40;90.30;;;;;;5016556;28;88326;-71
2021/04/10 02:17:39;;;;;;;;;;;6.40;90.00;;;;;;5015645;28;89322;-71
2021/04/10 02:20:10;;;;;;;;;;;6.30;90.10;;;;;;5017702;28;86411;-71
2021/04/10 02:22:36;;;;;;;;;;;6.30;90.00;;;;;;5018186;28;87233;-71
2021/04/10 02:25:01;;;;;;;;;;;6.30;90.10;;;;;;5017965;28;87759;-71
2021/04/10 02:27:27;;;;;;;;;;;6.30;90.00;;;;;;5020760;28;88151;-71
2021/04/10 02:29:52;;;;;;;;;;;6.30;90.00;;;;;;5018174;28;88304;-71
2021/04/10 02:32:18;;;;;;;;;;;6.30;89.80;;;;;;5019882;28;87189;-71
2021/04/10 02:34:50;;;;;;;;;;;6.30;90.00;;;;;;5019427;28;87742;-71
2021/04/10 02:37:16;;;;;;;;;;;6.30;89.90;;;;;;5019052;28;87126;-71
2021/04/10 02:39:42;;;;;;;;;;;6.20;90.00;;;;;;5018837;28;87166;-71
2021/04/10 02:42:09;;;;;;;;;;;6.20;89.90;;;;;;5016938;28;87178;-72
2021/04/10 02:44:44;;;;;;;;;;;6.20;90.00;;;;;;5015979;28;86401;-71
2021/04/10 02:47:10;;;;;;;;;;;6.20;90.10;;;;;;5019690;28;87142;-71
2021/04/10 02:49:38;;;;;;;;;;;6.20;90.00;;;;;;5017186;28;88176;-71
2021/04/10 02:52:04;;;;;;;;;;;6.20;90.00;;;;;;5014881;28;89689;-71
2021/04/10 02:54:38;;;;;;;;;;;6.20;90.00;;;;;;5016422;28;90033;-71
2021/04/10 02:57:15;;;;;;;;;;;6.20;90.00;;;;;;5016808;28;87806;-71
2021/04/10 02:59:42;;;;;;;;;;;6.10;89.70;;;;;;5016003;28;87140;-71
2021/04/10 03:02:09;;;;;;;;;;;6.10;89.60;;;;;;5017074;28;87736;-72
2021/04/10 03:04:35;;;;;;;;;;;6.10;89.80;;;;;;5019369;28;87619;-71
2021/04/10 03:07:01;;;;;;;;;;;6.10;89.60;;;;;;5018471;28;87166;-71
2021/04/10 03:09:28;;;;;;;;;;;6.10;89.60;;;;;;5021257;28;86844;-71
2021/04/10 03:11:53;;;;;;;;;;;6.10;89.80;;;;;;5020920;28;87146;-71
2021/04/10 03:14:19;;;;;;;;;;;6.10;89.70;;;;;;5020429;28;87536;-71
2021/04/10 03:16:45;;;;;;;;;;;6.00;89.80;;;;;;5019999;28;89244;-71
2021/04/10 03:19:11;;;;;;;;;;;6.00;89.70;;;;;;5020358;28;87201;-72
2021/04/10 03:21:40;;;;;;;;;;;6.00;89.80;;;;;;5020459;28;87158;-71
2021/04/10 03:24:06;;;;;;;;;;;6.00;89.60;;;;;;5022570;28;87969;-71
2021/04/10 03:26:32;;;;;;;;;;;6.00;89.80;;;;;;5021844;28;87213;-71
2021/04/10 03:28:57;;;;;;;;;;;5.90;89.90;;;;;;5022129;28;87151;-71
2021/04/10 03:31:23;;;;;;;;;;;6.00;89.70;;;;;;5023852;28;88132;-71
2021/04/10 03:33:49;;;;;;;;;;;6.00;89.70;;;;;;5020785;28;87579;-71
2021/04/10 03:36:14;;;;;;;;;;;5.90;89.80;;;;;;5018872;28;88103;-71
2021/04/10 03:38:42;;;;;;;;;;;5.90;89.90;;;;;;5018196;28;87176;-71
2021/04/10 03:41:07;;;;;;;;;;;5.90;89.80;;;;;;5022520;28;88712;-72
2021/04/10 03:43:33;;;;;;;;;;;5.90;89.90;;;;;;5022864;28;88064;-71
2021/04/10 03:46:01;;;;;;;;;;;5.90;89.90;;;;;;5022771;28;87142;-71
2021/04/10 03:48:27;;;;;;;;;;;5.90;90.00;;;;;;5019320;28;87601;-71
2021/04/10 03:50:52;;;;;;;;;;;5.80;89.80;;;;;;5019466;28;88347;-71
2021/04/10 03:53:18;;;;;;;;;;;5.80;89.70;;;;;;5023685;28;87094;-71
2021/04/10 03:55:43;;;;;;;;;;;5.80;89.50;;;;;;5020583;28;88764;-72
2021/04/10 03:58:10;;;;;;;;;;;5.80;89.80;;;;;;5022722;28;86377;-71
2021/04/10 04:00:35;;;;;;;;;;;5.80;89.40;;;;;;5022484;28;87148;-72
2021/04/10 04:03:01;;;;;;;;;;;5.80;89.50;;;;;;5022187;28;88124;-72
2021/04/10 04:05:27;;;;;;;;;;;5.80;89.60;;;;;;5022323;28;88076;-72
2021/04/10 04:07:53;;;;;;;;;;;5.80;89.40;;;;;;5021985;28;88472;-72
2021/04/10 04:10:18;;;;;;;;;;;5.80;89.60;;;;;;5020920;28;87724;-72
2021/04/10 04:12:44;;;;;;;;;;;5.70;89.40;;;;;;5020729;28;87136;-72
2021/04/10 04:15:09;;;;;;;;;;;5.70;89.60;;;;;;5022575;28;87264;-72
2021/04/10 04:17:35;;;;;;;;;;;5.70;89.30;;;;;;5021311;28;87609;-72
2021/04/10 04:20:00;;;;;;;;;;;5.70;89.50;;;;;;5022624;28;87387;-71
2021/04/10 04:22:26;;;;;;;;;;;5.70;89.50;;;;;;5022334;28;87388;-72
2021/04/10 04:24:52;;;;;;;;;;;5.70;89.60;;;;;;5019535;28;88398;-72
2021/04/10 04:27:17;;;;;;;;;;;5.70;89.60;;;;;;5017633;28;88759;-72
2021/04/10 04:29:43;;;;;;;;;;;5.70;89.40;;;;;;5017513;28;88146;-72
2021/04/10 04:32:08;;;;;;;;;;;5.60;89.30;;;;;;5018034;28;87266;-72
2021/04/10 04:34:35;;;;;;;;;;;5.60;89.40;;;;;;5017480;28;87189;-71
2021/04/10 04:37:00;;;;;;;;;;;5.60;89.50;;;;;;5024021;28;87711;-72
2021/04/10 04:39:26;;;;;;;;;;;5.60;89.50;;;;;;5020680;28;88420;-72
2021/04/10 04:41:51;;;;;;;;;;;5.60;89.50;;;;;;5021630;28;88328;-72
2021/04/10 04:44:17;;;;;;;;;;;5.50;89.50;;;;;;5021996;28;88114;-72
2021/04/10 04:46:42;;;;;;;;;;;5.60;89.50;;;;;;5019066;28;87925;-72
2021/04/10 04:49:08;;;;;;;;;;;5.60;89.50;;;;;;5017682;28;87680;-72
2021/04/10 04:51:33;;;;;;;;;;;5.50;89.60;;;;;;5019036;28;87293;-71
2021/04/10 04:53:59;;;;;;;;;;;5.50;89.40;;;;;;5018566;28;88077;-72
2021/04/10 04:56:24;;;;;;;;;;;5.50;89.40;;;;;;5022863;28;87505;-71
2021/04/10 04:58:50;;;;;;;;;;;5.50;89.40;;;;;;5021575;28;87146;-71
2021/04/10 05:01:15;;;;;;;;;;;5.50;89.30;;;;;;5019718;28;88430;-72
2021/04/10 05:03:41;;;;;;;;;;;5.50;89.30;;;;;;5021876;28;88447;-71
2021/04/10 05:06:07;;;;;;;;;;;5.50;89.40;;;;;;5020428;28;88848;-72
2021/04/10 05:08:32;;;;;;;;;;;5.50;89.30;;;;;;5016785;28;87910;-72
2021/04/10 05:10:58;;;;;;;;;;;5.50;89.30;;;;;;5018544;28;86375;-72
2021/04/10 05:13:23;;;;;;;;;;;5.50;89.40;;;;;;5018047;28;87158;-71
2021/04/10 05:15:49;;;;;;;;;;;5.50;89.30;;;;;;5018307;28;88129;-71
2021/04/10 05:18:14;;;;;;;;;;;5.40;89.20;;;;;;5023935;28;88142;-71
2021/04/10 05:20:40;;;;;;;;;;;5.50;89.50;;;;;;5020315;28;87999;-72
2021/04/10 05:23:05;;;;;;;;;;;5.40;89.30;;;;;;5021700;28;87148;-71
2021/04/10 05:25:31;;;;;;;;;;;5.40;89.20;;;;;;5020552;28;87167;-72
2021/04/10 05:27:57;;;;;;;;;;;5.40;89.20;;;;;;5020345;28;88163;-71
2021/04/10 05:30:22;;;;;;;;;;;5.40;89.30;;;;;;5020662;28;87805;-72
2021/04/10 05:32:48;;;;;;;;;;;5.40;89.30;;;;;;5017026;28;87931;-72
2021/04/10 05:35:15;;;;;;;;;;;5.40;89.30;;;;;;5017600;28;86761;-72
2021/04/10 05:37:41;;;;;;;;;;;5.40;89.30;;;;;;5016585;28;87200;-72
2021/04/10 05:40:06;;;;;;;;;;;5.40;89.40;;;;;;5019010;28;87123;-72
2021/04/10 05:42:32;;;;;;;;;;;5.40;89.30;;;;;;5018154;28;89713;-72
2021/04/10 05:44:58;;;;;;;;;;;5.40;89.30;;;;;;5016741;28;87990;-72
2021/04/10 05:47:23;;;;;;;;;;;5.40;89.50;;;;;;5017265;28;88092;-72
2021/04/10 05:49:49;;;;;;;;;;;5.40;89.40;;;;;;5017873;28;87146;-72
2021/04/10 05:52:15;;;;;;;;;;;5.40;89.20;;;;;;5016743;28;87158;-72
2021/04/10 05:54:40;;;;;;;;;;;5.40;89.30;;;;;;5016509;28;88115;-72
2021/04/10 05:57:06;;;;;;;;;;;5.40;89.40;;;;;;5019043;28;88886;-72
2021/04/10 05:59:31;;;;;;;;;;;5.40;89.50;;;;;;5016849;28;88133;-72
2021/04/10 06:01:57;;;;;;;;;;;5.30;89.50;;;;;;5019994;28;87688;-72
2021/04/10 06:04:23;;;;;;;;;;;5.30;89.50;;;;;;5018631;28;87177;-72
2021/04/10 06:06:48;;;;;;;;;;;5.40;89.50;;;;;;5018673;28;88481;-72
2021/04/10 06:09:14;;;;;;;;;;;5.40;89.60;;;;;;5020964;28;88920;-72
2021/04/10 06:11:39;;;;;;;;;;;5.30;89.50;;;;;;5017885;28;87463;-72
2021/04/10 06:14:05;;;;;;;;;;;5.40;89.60;;;;;;5015854;28;88486;-72
2021/04/10 06:16:30;;;;;;;;;;;5.40;89.60;;;;;;5015654;28;88943;-72
2021/04/10 06:18:56;;;;;;;;;;;5.30;89.60;;;;;;5016080;28;89274;-71
2021/04/10 06:21:22;;;;;;;;;;;5.40;89.70;;;;;;5016314;28;88103;-72
2021/04/10 06:23:48;;;;;;;;;;;5.40;89.60;;;;;;5021288;28;86522;-71
2021/04/10 06:26:13;;;;;;;;;;;5.40;89.80;;;;;;5017776;28;87643;-72
2021/04/10 06:28:40;;;;;;;;;;;5.40;89.70;;;;;;5018207;28;87136;-72
2021/04/10 06:31:05;;;;;;;;;;;5.30;89.60;;;;;;5017619;28;88113;-72
2021/04/10 06:33:31;;;;;;;;;;;5.30;89.70;;;;;;5017273;28;87821;-72
2021/04/10 06:35:56;;;;;;;;;;;5.40;89.80;;;;;;5016661;28;87148;-72
2021/04/10 06:38:22;;;;;;;;;;;5.40;89.80;;;;;;5016157;28;87171;-72
2021/04/10 06:40:47;;;;;;;;;;;5.30;89.80;;;;;;5015505;28;88954;-72
2021/04/10 06:43:13;;;;;;;;;;;5.40;89.80;;;;;;5016628;28;87229;-72
2021/04/10 06:45:39;;;;;;;;;;;5.40;89.90;;;;;;5023113;28;87163;-72
2021/04/10 06:48:09;;;;;;;;;;;5.40;89.80;;;;;;5021418;28;86471;-72
2021/04/10 06:50:34;;;;;;;;;;;5.40;89.80;;;;;;5022824;28;88749;-72
2021/04/10 06:53:02;;;;;;;;;;;5.40;89.80;;;;;;5023334;28;88293;-72
2021/04/10 06:55:29;;;;;;;;;;;5.40;89.90;;;;;;5021725;28;88115;-72
2021/04/10 06:57:58;;;;;;;;;;;5.40;90.00;;;;;;5019584;28;88472;-72
2021/04/10 07:00:23;;;;;;;;;;;5.30;89.90;;;;;;5023319;28;88154;-72
2021/04/10 07:02:49;;;;;;;;;;;5.40;90.00;;;;;;5021785;28;88256;-72
2021/04/10 07:05:15;;;;;;;;;;;5.40;90.00;;;;;;5021987;28;88794;-72
2021/04/10 07:07:44;;;;;;;;;;;5.40;90.00;;;;;;5019560;28;87253;-72
2021/04/10 07:10:10;;;;;;;;;;;5.40;90.00;;;;;;5023678;28;87391;-72
2021/04/10 07:12:37;;;;;;;;;;;5.40;90.00;;;;;;5022979;28;89068;-72
2021/04/10 07:15:03;;;;;;;;;;;5.40;90.00;;;;;;5022622;28;87160;-72
2021/04/10 07:17:28;;;;;;;;;;;5.40;90.00;;;;;;5020544;28;88148;-72
2021/04/10 07:19:54;;;;;;;;;;;5.40;90.00;;;;;;5018959;28;89188;-72
2021/04/10 07:22:19;;;;;;;;;;;5.40;90.00;;;;;;5019580;28;87656;-72
2021/04/10 07:24:49;;;;;;;;;;;5.40;90.00;;;;;;5020553;28;87161;-72
2021/04/10 07:27:19;;;;;;;;;;;5.40;90.00;;;;;;5025584;28;87597;-72
2021/04/10 07:29:58;;;;;;;;;;;5.40;90.00;;;;;;5020010;28;88256;-72
2021/04/10 07:32:27;;;;;;;;;;;5.40;90.00;;;;;;5020811;28;87166;-72
2021/04/10 07:34:53;;;;;;;;;;;5.40;90.00;;;;;;5023194;28;87167;-71
2021/04/10 07:37:28;;;;;;;;;;;5.40;90.30;;;;;;5022968;28;87496;-72
2021/04/10 07:39:53;;;;;;;;;;;5.40;90.00;;;;;;5019081;28;87729;-71
2021/04/10 07:42:23;;;;;;;;;;;5.50;90.00;;;;;;5020568;28;87185;-72
2021/04/10 07:44:49;;;;;;;;;;;5.50;90.00;;;;;;5020916;28;88133;-71
2021/04/10 07:47:14;;;;;;;;;;;5.40;90.10;;;;;;5022265;28;88501;-72
2021/04/10 07:49:40;;;;;;;;;;;5.50;90.10;;;;;;5024165;28;88733;-72
2021/04/10 07:52:06;;;;;;;;;;;5.50;90.10;;;;;;5018684;28;88780;-72
2021/04/10 07:54:32;;;;;;;;;;;5.50;90.10;;;;;;5022520;28;88324;-72
2021/04/10 07:57:02;;;;;;;;;;;5.50;90.10;;;;;;5022202;28;87519;-71
2021/04/10 07:59:29;;;;;;;;;;;5.50;90.10;;;;;;5021943;28;88537;-71
2021/04/10 08:02:07;;;;;;;;;;;5.50;90.10;;;;;;5022742;28;86449;-71
2021/04/10 08:04:33;;;;;;;;;;;5.50;90.10;;;;;;5019499;28;87140;-72
2021/04/10 08:06:59;;;;;;;;;;;5.50;90.10;;;;;;5019986;28;87979;-72
2021/04/10 08:09:29;;;;;;;;;;;5.50;90.10;;;;;;5019721;28;88098;-72
2021/04/10 08:11:55;;;;;;;;;;;5.50;90.10;;;;;;5024367;28;88357;-72
2021/04/10 08:14:21;;;;;;;;;;;5.50;90.10;;;;;;5022091;28;87227;-72
2021/04/10 08:16:48;;;;;;;;;;;5.50;90.10;;;;;;5022269;28;87289;-72
2021/04/10 08:19:14;;;;;;;;;;;5.50;90.20;;;;;;5020876;28;88024;-72
2021/04/10 08:21:48;;;;;;;;;;;5.60;90.20;;;;;;5020754;28;87147;-72
2021/04/10 08:24:21;;;;;;;;;;;5.50;90.20;;;;;;5018550;28;88117;-72
2021/04/10 08:26:50;;;;;;;;;;;5.60;90.20;;;;;;5022669;28;87503;-72
2021/04/10 08:29:16;;;;;;;;;;;5.60;90.20;;;;;;5017874;28;87249;-72
2021/04/10 08:31:41;;;;;;;;;;;5.60;90.20;;;;;;5018591;28;87252;-72
2021/04/10 08:34:07;;;;;;;;;;;5.60;90.20;;;;;;5021828;28;88082;-72
2021/04/10 08:36:33;;;;;;;;;;;5.60;90.30;;;;;;5020435;28;88500;-72
2021/04/10 08:38:59;;;;;;;;;;;5.70;90.20;;;;;;5019390;28;88186;-72
2021/04/10 08:41:28;;;;;;;;;;;5.60;90.20;;;;;;5019695;28;87346;-72
2021/04/10 08:43:54;;;;;;;;;;;5.70;90.30;;;;;;5022262;28;87439;-72
2021/04/10 08:46:20;;;;;;;;;;;5.70;90.30;;;;;;5021618;28;88257;-72
2021/04/10 08:48:50;;;;;;;;;;;5.70;90.30;;;;;;5021458;28;87179;-72
2021/04/10 08:51:17;;;;;;;;;;;5.70;90.30;;;;;;5021334;28;87724;-72
2021/04/10 08:53:47;;;;;;;;;;;5.70;90.30;;;;;;5020421;28;87198;-74
2021/04/10 08:56:17;;;;;;;;;;;5.80;90.30;;;;;;5020414;28;87152;-72
2021/04/10 08:58:43;;;;;;;;;;;5.80;90.40;;;;;;5018459;28;88611;-74
2021/04/10 09:01:10;;;;;;;;;;;5.80;90.30;;;;;;5019660;28;87137;-74
2021/04/10 09:03:45;;;;;;;;;;;5.80;90.30;;;;;;5017628;28;87172;-74
2021/04/10 09:06:14;;;;;;;;;;;5.80;90.30;;;;;;5017758;28;88263;-74
2021/04/10 09:08:39;;;;;;;;;;;5.80;90.30;;;;;;5018724;28;87196;-74
2021/04/10 09:11:08;;;;;;;;;;;5.80;90.30;;;;;;5019912;28;87522;-74
2021/04/10 09:13:39;;;;;;;;;;;5.90;90.30;;;;;;5016700;28;89160;-74
2021/04/10 09:16:38;;;;;;;;;;;5.90;90.30;;;;;;5020245;28;87739;-74
2021/04/10 09:19:19;;;;;;;;;;;5.90;90.30;;;;;;4995995;28;88183;-74
2021/04/10 09:21:49;;;;;;;;;;;5.90;90.40;;;;;;5020583;28;87146;-74
2021/04/10 09:24:20;;;;;;;;;;;5.90;90.30;;;;;;5018713;28;89474;-74
2021/04/10 09:27:06;;;;;;;;;;;6.00;90.40;;;;;;5019234;28;88181;-74
2021/04/10 09:29:42;;;;;;;;;;;6.00;90.40;;;;;;5016357;28;87223;-74
2021/04/10 09:32:08;;;;;;;;;;;6.00;90.40;;;;;;5018827;28;87783;-74
2021/04/10 09:34:43;;;;;;;;;;;6.00;90.40;;;;;;5016468;28;89048;-73
2021/04/10 09:37:12;;;;;;;;;;;6.10;90.20;;;;;;5018309;28;87206;-74
2021/04/10 09:39:49;;;;;;;;;;;6.10;90.20;;;;;;5022796;28;87190;-74
2021/04/10 09:42:50;;;;;;;;;;;6.10;90.20;;;;;;5017185;28;86411;-74
2021/04/10 09:45:46;;;;;;;;;;;6.10;90.30;;;;;;4974878;28;87325;-73
2021/04/10 09:48:14;;;;;;;;;;;6.10;90.30;;;;;;5017335;28;88946;-73
2021/04/10 09:50:41;;;;;;;;;;;6.10;90.30;;;;;;5019388;28;88130;-73
2021/04/10 09:53:13;;;;;;;;;;;6.20;90.40;;;;;;5017429;28;87340;-73
2021/04/10 09:55:41;;;;;;;;;;;6.20;90.40;;;;;;5016967;28;88157;-73
2021/04/10 09:58:07;;;;;;;;;;;6.20;90.40;;;;;;5021143;28;88719;-73
2021/04/10 10:00:34;;;;;;;;;;;6.30;90.30;;;;;;5021255;28;87181;-73
2021/04/10 10:03:01;;;;;;;;;;;6.30;90.30;;;;;;5022989;28;87653;-72
2021/04/10 10:05:37;;;;;;;;;;;6.30;90.30;;;;;;5018925;28;87699;-71
2021/04/10 10:08:04;;;;;;;;;;;6.30;90.30;;;;;;5019894;28;86917;-71
2021/04/10 10:10:30;;;;;;;;;;;6.30;90.40;;;;;;5019622;28;87169;-72
2021/04/10 10:13:09;;;;;;;;;;;6.40;90.40;;;;;;5019378;28;87519;-71
2021/04/10 10:15:35;;;;;;;;;;;6.40;90.30;;;;;;5014710;28;89115;-71
2021/04/10 10:18:15;;;;;;;;;;;6.40;90.30;;;;;;5016021;28;88424;-71
2021/04/10 10:21:00;;;;;;;;;;;6.40;90.30;;;;;;5019366;28;88071;-71
2021/04/10 10:23:26;;;;;;;;;;;6.50;90.20;;;;;;5015811;28;87633;-72
2021/04/10 10:25:52;;;;;;;;;;;6.50;90.20;;;;;;5023263;28;87934;-71
2021/04/10 10:28:18;;;;;;;;;;;6.60;90.30;;;;;;5017841;28;88330;-71
2021/04/10 10:30:44;;;;;;;;;;;6.50;90.30;;;;;;5018876;28;88663;-71
2021/04/10 10:33:10;;;;;;;;;;;6.60;90.30;;;;;;5020525;28;87871;-71
2021/04/10 10:35:36;;;;;;;;;;;6.60;90.30;;;;;;5018278;28;88207;-71
2021/04/10 10:38:05;;;;;;;;;;;6.70;90.30;;;;;;5015712;28;87279;-71
2021/04/10 10:40:31;;;;;;;;;;;6.70;90.30;;;;;;5017966;28;88129;-71
2021/04/10 10:43:04;;;;;;;;;;;6.70;90.30;;;;;;5017989;28;87507;-71
2021/04/10 10:45:38;;;;;;;;;;;6.70;90.30;;;;;;5016482;28;87167;-71
2021/04/10 10:48:19;;;;;;;;;;;6.70;90.20;;;;;;5021971;28;87608;-71
2021/04/10 10:50:47;;;;;;;;;;;6.70;90.30;;;;;;5019658;28;87889;-71
2021/04/10 10:53:13;;;;;;;;;;;6.80;90.30;;;;;;5018102;28;87159;-71
2021/04/10 10:55:58;;;;;;;;;;;6.80;90.30;;;;;;5017613;28;87466;-71
2021/04/10 10:58:23;;;;;;;;;;;6.80;90.20;;;;;;5019904;28;86462;-71
2021/04/10 11:00:50;;;;;;;;;;;6.90;90.20;;;;;;5017664;28;87113;-71
2021/04/10 11:03:22;;;;;;;;;;;6.90;90.30;;;;;;5014750;28;88236;-71
2021/04/10 11:05:49;;;;;;;;;;;6.90;90.20;;;;;;5015878;28;89573;-71
2021/04/10 11:08:17;;;;;;;;;;;6.90;90.30;;;;;;5019159;28;88509;-71
2021/04/10 11:10:44;;;;;;;;;;;7.00;90.20;;;;;;5016994;28;87120;-71
2021/04/10 11:13:11;;;;;;;;;;;7.00;90.20;;;;;;5015256;28;87155;-73
2021/04/10 11:15:37;;;;;;;;;;;7.40;80.00;;;;;;5014586;28;87516;-65
2021/04/10 11:18:03;;;;;;;;;;;7.60;82.20;;;;;;5015394;28;87178;-75
2021/04/10 11:20:33;;;;;;;;;;;7.80;70.90;;;;;;5016476;28;87535;-69
2021/04/10 11:23:02;;;;;;;;;;;8.00;76.40;;;;;;5018757;28;87435;-73
2021/04/10 11:25:28;;;;;;;;;;;7.90;81.00;;;;;;5018649;28;88901;-70
2021/04/10 11:27:54;;;;;;;;;;;7.90;80.40;;;;;;5017713;28;88864;-68
2021/04/10 11:30:19;;;;;;;;;;;8.10;79.00;;;;;;5019026;28;89802;-72
2021/04/10 11:32:45;;;;;;;;;;;8.20;76.40;;;;;;5018593;28;88335;-76
2021/04/10 11:35:18;;;;;;;;;;;8.20;77.10;;;;;;5018996;28;87979;-70
2021/04/10 11:37:48;;;;;;;;;;;8.20;74.80;;;;;;5021591;28;87159;-65
2021/04/10 11:40:16;;;;;;;;;;;8.20;76.10;;;;;;5023021;28;87227;-65
2021/04/10 11:42:49;;;;;;;;;;;8.20;73.20;;;;;;5020731;28;87178;-66
2021/04/10 11:45:27;;;;;;;;;;;8.30;74.00;;;;;;5019772;28;87186;-61
2021/04/10 11:48:14;;;;;;;;;;;8.20;74.10;;;;;;5023295;28;86582;-74
2021/04/10 11:50:51;;;;;;;;;;;8.60;65.10;;;;;;5020908;28;88158;-74
2021/04/10 11:53:20;;;;;;;;;;;8.30;74.30;;;;;;5021692;28;87120;-74
2021/04/10 11:55:46;;;;;;;;;;;8.10;77.40;;;;;;5021629;28;88660;-73
2021/04/10 11:58:11;;;;;;;;;;;8.00;78.80;;;;;;5020229;28;87229;-73
2021/04/10 12:00:37;;;;;;;;;;;7.90;80.40;;;;;;5021156;28;87141;-73
2021/04/10 12:03:09;;;;;;;;;;;7.90;81.10;;;;;;5019580;28;88180;-73
2021/04/10 12:05:42;;;;;;;;;;;7.90;82.50;;;;;;5021522;28;88621;-73
2021/04/10 12:08:13;;;;;;;;;;;7.90;83.40;;;;;;5021851;28;87583;-73
2021/04/10 12:10:40;;;;;;;;;;;7.90;83.60;;;;;;5021306;28;88255;-73
2021/04/10 12:13:06;;;;;;;;;;;7.90;84.00;;;;;;5021850;28;86397;-73
2021/04/10 12:15:33;;;;;;;;;;;7.90;84.40;;;;;;5024039;28;87174;-73
2021/04/10 12:17:58;;;;;;;;;;;8.00;84.40;;;;;;5020374;28;87114;-73
2021/04/10 12:20:24;;;;;;;;;;;8.00;84.20;;;;;;5020688;28;88104;-66
2021/04/10 12:22:50;;;;;;;;;;;8.10;79.80;;;;;;5021657;28;87724;-69
2021/04/10 12:25:16;;;;;;;;;;;8.40;72.20;;;;;;5022302;28;87139;-64
2021/04/10 12:27:41;;;;;;;;;;;8.70;66.60;;;;;;5018359;28;89224;-63
2021/04/10 12:30:07;;;;;;;;;;;8.80;64.90;;;;;;5017336;28;88198;-63
2021/04/10 12:32:33;;;;;;;;;;;8.80;65.30;;;;;;5018511;28;87142;-63
2021/04/10 12:34:59;;;;;;;;;;;8.90;61.70;;;;;;5019541;28;87169;-64
2021/04/10 12:37:25;;;;;;;;;;;8.90;64.20;;;;;;5022183;28;87395;-64
2021/04/10 12:39:50;;;;;;;;;;;9.10;60.10;;;;;;5019600;28;87291;-64
2021/04/10 12:42:16;;;;;;;;;;;9.10;68.30;;;;;;5020244;28;87619;-64
2021/04/10 12:44:42;;;;;;;;;;;8.90;59.80;;;;;;5021167;28;88095;-64
2021/04/10 12:47:13;;;;;;;;;;;9.20;59.30;;;;;;5020389;28;87955;-64
2021/04/10 12:49:38;;;;;;;;;;;9.20;59.30;;;;;;5017515;28;88720;-64
2021/04/10 12:52:04;;;;;;;;;;;9.30;59.70;;;;;;5018018;28;87182;-64
2021/04/10 12:54:29;;;;;;;;;;;9.10;60.60;;;;;;5019153;28;87167;-64
2021/04/10 12:56:55;;;;;;;;;;;9.30;59.40;;;;;;5018645;28;88314;-64
2021/04/10 12:59:20;;;;;;;;;;;9.50;55.80;;;;;;5023065;28;87157;-64
2021/04/10 13:01:46;;;;;;;;;;;9.50;61.90;;;;;;5021482;28;87330;-64
2021/04/10 13:04:11;;;;;;;;;;;9.40;59.60;;;;;;5019887;28;88365;-64
2021/04/10 13:06:37;;;;;;;;;;;9.30;61.30;;;;;;5017132;28;87465;-64
2021/04/10 13:09:03;;;;;;;;;;;9.20;57.90;;;;;;5017211;28;89646;-64
2021/04/10 13:11:28;;;;;;;;;;;9.30;57.70;;;;;;5018643;28;87273;-64
2021/04/10 13:13:54;;;;;;;;;;;9.30;56.90;;;;;;5018535;28;87156;-64
2021/04/10 13:16:20;;;;;;;;;;;9.40;58.00;;;;;;5019257;28;87686;-64
2021/04/10 13:18:45;;;;;;;;;;;9.50;56.60;;;;;;5023792;28;87175;-64
2021/04/10 13:21:11;;;;;;;;;;;9.70;59.70;;;;;;5020001;28;88259;-64
2021/04/10 13:23:36;;;;;;;;;;;9.60;56.20;;;;;;5017161;28;88118;-64
2021/04/10 13:26:02;;;;;;;;;;;9.60;58.40;;;;;;5018255;28;87481;-64
2021/04/10 13:28:28;;;;;;;;;;;9.60;55.50;;;;;;5017852;28;88329;-64
2021/04/10 13:30:53;;;;;;;;;;;9.80;54.70;;;;;;5019082;28;87175;-64
2021/04/10 13:33:19;;;;;;;;;;;10.00;56.00;;;;;;5018943;28;88124;-64
2021/04/10 13:35:44;;;;;;;;;;;9.90;54.00;;;;;;5019630;28;87899;-64
2021/04/10 13:38:10;;;;;;;;;;;10.20;51.20;;;;;;5020824;28;87238;-64
2021/04/10 13:40:36;;;;;;;;;;;10.20;52.40;;;;;;5022546;28;88684;-64
2021/04/10 13:43:02;;;;;;;;;;;10.50;54.00;;;;;;5021277;28;87320;-64
2021/04/10 13:45:27;;;;;;;;;;;10.30;56.80;;;;;;5020004;28;87420;-64
2021/04/10 13:47:53;;;;;;;;;;;10.20;57.50;;;;;;5018942;28;88170;-64
2021/04/10 13:50:18;;;;;;;;;;;10.20;53.30;;;;;;5019682;28;86377;-64
2021/04/10 13:52:45;;;;;;;;;;;10.30;54.50;;;;;;5019162;28;87108;-64
2021/04/10 13:55:11;;;;;;;;;;;10.40;53.50;;;;;;5017264;28;88484;-64
2021/04/10 13:57:36;;;;;;;;;;;10.50;53.30;;;;;;5018476;28;88102;-64
2021/04/10 14:00:03;;;;;;;;;;;10.50;54.00;;;;;;5019463;28;88418;-64
2021/04/10 14:02:29;;;;;;;;;;;10.50;54.80;;;;;;5019305;28;87196;-64
2021/04/10 14:04:57;;;;;;;;;;;10.40;57.60;;;;;;5018273;28;87141;-64
2021/04/10 14:07:23;;;;;;;;;;;10.20;57.10;;;;;;5017796;28;89089;-63
2021/04/10 14:09:48;;;;;;;;;;;10.20;55.60;;;;;;5016558;28;87219;-64
2021/04/10 14:12:14;;;;;;;;;;;10.20;54.60;;;;;;5017345;28;87145;-64
2021/04/10 14:14:40;;;;;;;;;;;10.20;55.90;;;;;;5017443;28;86903;-64
2021/04/10 14:17:06;;;;;;;;;;;10.30;53.60;;;;;;5016522;28;87250;-64
2021/04/10 14:19:31;;;;;;;;;;;10.20;57.00;;;;;;5017324;28;87582;-64
2021/04/10 14:21:57;;;;;;;;;;;10.10;56.30;;;;;;5017873;28;88579;-64
2021/04/10 14:24:23;;;;;;;;;;;10.20;52.40;;;;;;5021152;28;87213;-64
2021/04/10 14:26:49;;;;;;;;;;;10.20;52.20;;;;;;5017044;28;88610;-64
2021/04/10 14:29:15;;;;;;;;;;;10.30;54.00;;;;;;5015914;28;87147;-64